Time;durP1;ratioP1;P1;durP2;ratioP2;P2;SDS_P1;SDS_P2;PMS_P1;PMS_P2;Temp;Humidity;BMP_temperature;BMP_pressure;BME280_temperature;BME280_humidity;BME280_pressure;Samples;Min_cycle;Max_cycle;Signal;HPM_P1;HPM_P2
2024/03/07 00:00:45;;;;;;;15.02;11.55;;;4.30;99.90;;;;;;5007921;28;20213;-77
2024/03/07 00:03:13;;;;;;;15.80;11.45;;;4.30;99.90;;;;;;5003148;28;20222;-77
2024/03/07 00:05:40;;;;;;;13.60;10.02;;;4.30;99.90;;;;;;4994919;28;20241;-77
2024/03/07 00:08:07;;;;;;;13.93;11.48;;;4.30;99.90;;;;;;5002627;28;20285;-78
2024/03/07 00:10:36;;;;;;;15.80;11.15;;;4.20;99.90;;;;;;5008565;28;20213;-77
2024/03/07 00:13:03;;;;;;;15.90;12.68;;;4.20;99.90;;;;;;5008710;28;20273;-78
2024/03/07 00:15:31;;;;;;;18.58;11.70;;;4.20;99.90;;;;;;5009961;28;20202;-77
2024/03/07 00:17:58;;;;;;;13.90;9.90;;;4.20;99.90;;;;;;5006157;28;20202;-76
2024/03/07 00:20:25;;;;;;;15.43;9.80;;;4.20;99.90;;;;;;5008539;28;20614;-77
2024/03/07 00:22:52;;;;;;;18.90;11.07;;;4.30;99.90;;;;;;5005508;28;20218;-77
2024/03/07 00:25:21;;;;;;;17.25;13.20;;;4.30;99.90;;;;;;5012387;28;20290;-79
2024/03/07 00:27:49;;;;;;;17.17;11.95;;;4.30;99.90;;;;;;5005724;28;20246;-78
2024/03/07 00:30:18;;;;;;;14.40;11.43;;;4.30;99.90;;;;;;5005910;28;20201;-79
2024/03/07 00:32:47;;;;;;;18.60;12.73;;;4.30;99.90;;;;;;5009643;28;20220;-76
2024/03/07 00:35:14;;;;;;;13.68;11.93;;;4.30;99.90;;;;;;5001433;28;20232;-77
2024/03/07 00:37:41;;;;;;;17.23;14.23;;;4.30;99.90;;;;;;5007299;28;20205;-77
2024/03/07 00:40:10;;;;;;;18.67;12.30;;;4.20;99.90;;;;;;5009476;28;20270;-77
2024/03/07 00:42:37;;;;;;;16.02;12.45;;;4.20;99.90;;;;;;5007030;28;20718;-77
2024/03/07 00:45:04;;;;;;;16.50;12.90;;;4.20;99.90;;;;;;5002093;28;20325;-76
2024/03/07 00:47:32;;;;;;;16.63;13.70;;;4.20;99.90;;;;;;5008556;28;20633;-77
2024/03/07 00:50:00;;;;;;;17.20;13.75;;;4.20;99.90;;;;;;5005096;28;20302;-76
2024/03/07 00:52:27;;;;;;;15.82;12.43;;;4.20;99.90;;;;;;5003492;28;20248;-77
2024/03/07 00:54:54;;;;;;;16.45;12.60;;;4.20;99.90;;;;;;5008753;28;20275;-76
2024/03/07 00:57:21;;;;;;;14.57;11.70;;;4.20;99.90;;;;;;5003559;28;20209;-77
2024/03/07 00:59:49;;;;;;;21.00;13.45;;;4.10;99.90;;;;;;5007580;28;20216;-77
2024/03/07 01:02:16;;;;;;;16.00;12.25;;;4.10;99.90;;;;;;5010584;28;20684;-78
2024/03/07 01:04:43;;;;;;;22.40;14.02;;;4.10;99.90;;;;;;5008790;28;20278;-75
2024/03/07 01:07:12;;;;;;;19.60;13.68;;;4.00;99.90;;;;;;5004208;28;20706;-77
2024/03/07 01:09:39;;;;;;;21.25;15.32;;;4.00;99.90;;;;;;5005476;28;20202;-78
2024/03/07 01:12:06;;;;;;;20.25;12.40;;;4.00;99.90;;;;;;5011892;28;20255;-79
2024/03/07 01:14:33;;;;;;;18.38;13.90;;;4.00;99.90;;;;;;5013488;28;20268;-79
2024/03/07 01:17:00;;;;;;;21.80;14.48;;;3.90;99.90;;;;;;5015863;28;20667;-79
2024/03/07 01:19:27;;;;;;;17.63;14.63;;;3.90;99.90;;;;;;5017048;28;20205;-78
2024/03/07 01:21:54;;;;;;;21.63;16.00;;;3.90;99.90;;;;;;5015891;28;20210;-79
2024/03/07 01:24:22;;;;;;;25.70;17.13;;;3.90;99.90;;;;;;5017268;28;20221;-79
2024/03/07 01:26:49;;;;;;;18.73;14.38;;;3.90;99.90;;;;;;5015744;28;20209;-78
2024/03/07 01:29:16;;;;;;;18.83;15.18;;;3.90;99.90;;;;;;5015421;28;20601;-79
2024/03/07 01:31:43;;;;;;;18.55;16.23;;;3.90;99.90;;;;;;5017824;28;20209;-79
2024/03/07 01:34:10;;;;;;;22.88;17.35;;;3.80;99.90;;;;;;5012872;28;20289;-78
2024/03/07 01:36:37;;;;;;;21.98;17.17;;;3.70;99.90;;;;;;5007979;28;20206;-78
2024/03/07 01:39:05;;;;;;;22.50;17.70;;;3.70;99.90;;;;;;5014946;28;20730;-77
2024/03/07 01:41:34;;;;;;;19.92;16.23;;;3.70;99.90;;;;;;5010424;28;20692;-77
2024/03/07 01:44:01;;;;;;;22.63;17.42;;;3.60;99.90;;;;;;5006179;28;20258;-77
2024/03/07 01:46:29;;;;;;;23.15;18.02;;;3.60;99.90;;;;;;5011327;28;20235;-77
2024/03/07 01:48:56;;;;;;;22.52;16.55;;;3.60;99.90;;;;;;5008482;28;20637;-77
2024/03/07 01:51:23;;;;;;;25.58;18.88;;;3.60;99.90;;;;;;5016043;28;20197;-79
2024/03/07 01:53:51;;;;;;;22.67;17.48;;;3.60;99.90;;;;;;5005326;28;20264;-80
2024/03/07 01:56:19;;;;;;;21.05;17.20;;;3.50;99.90;;;;;;5016794;28;20197;-78
2024/03/07 01:58:48;;;;;;;25.17;17.55;;;3.50;99.90;;;;;;5017698;28;20303;-78
2024/03/07 02:01:15;;;;;;;23.25;18.38;;;3.50;99.90;;;;;;5014475;28;20209;-75
2024/03/07 02:03:43;;;;;;;28.05;18.38;;;3.50;99.90;;;;;;5014260;28;20218;-76
2024/03/07 02:06:12;;;;;;;25.63;19.20;;;3.50;99.90;;;;;;5007438;28;20279;-78
2024/03/07 02:08:40;;;;;;;25.58;20.75;;;3.50;99.90;;;;;;5014364;28;20292;-78
2024/03/07 02:11:08;;;;;;;25.15;18.88;;;3.40;99.90;;;;;;5013895;28;20201;-78
2024/03/07 02:13:35;;;;;;;28.23;20.33;;;3.50;99.90;;;;;;5006808;28;20312;-78
2024/03/07 02:16:03;;;;;;;26.98;19.38;;;3.30;99.90;;;;;;5008477;28;20297;-78
2024/03/07 02:18:30;;;;;;;26.83;20.73;;;3.30;99.90;;;;;;5007651;28;20248;-76
2024/03/07 02:21:00;;;;;;;27.67;20.90;;;3.50;99.90;;;;;;5010139;28;20202;-78
2024/03/07 02:23:27;;;;;;;30.52;22.20;;;3.40;99.90;;;;;;5009079;28;20229;-77
2024/03/07 02:25:54;;;;;;;31.13;21.58;;;3.50;99.90;;;;;;5011213;28;20277;-76
2024/03/07 02:28:21;;;;;;;35.45;22.40;;;3.50;99.90;;;;;;5010914;28;20209;-77
2024/03/07 02:30:48;;;;;;;51.85;31.02;;;3.50;99.90;;;;;;5013120;28;20263;-77
2024/03/07 02:33:16;;;;;;;51.22;26.38;;;3.50;99.90;;;;;;5003371;28;20303;-77
2024/03/07 02:35:43;;;;;;;43.00;26.35;;;3.50;99.90;;;;;;5011596;28;20205;-78
2024/03/07 02:38:12;;;;;;;42.35;28.48;;;3.50;99.90;;;;;;5009315;28;20201;-77
2024/03/07 02:40:39;;;;;;;45.30;28.08;;;3.40;99.90;;;;;;5011880;28;20209;-77
2024/03/07 02:43:07;;;;;;;49.38;30.52;;;3.50;99.90;;;;;;5007251;28;20293;-79
2024/03/07 02:45:33;;;;;;;61.75;34.42;;;3.50;99.90;;;;;;5007701;28;20209;-78
2024/03/07 02:48:00;;;;;;;59.20;35.40;;;3.40;99.90;;;;;;5010084;28;20209;-78
2024/03/07 02:50:27;;;;;;;56.42;33.33;;;3.30;99.90;;;;;;5014408;28;20214;-77
2024/03/07 02:52:54;;;;;;;59.15;34.20;;;3.30;99.90;;;;;;5014484;28;20232;-78
2024/03/07 02:55:23;;;;;;;62.53;34.47;;;3.30;99.90;;;;;;5007787;28;20214;-78
2024/03/07 02:57:50;;;;;;;63.08;36.08;;;3.30;99.90;;;;;;5012559;28;20224;-79
2024/03/07 03:00:20;;;;;;;84.20;40.83;;;3.30;99.90;;;;;;5008742;28;20571;-78
2024/03/07 03:02:48;;;;;;;74.22;38.67;;;3.10;99.90;;;;;;5007057;28;20236;-78
2024/03/07 03:05:16;;;;;;;69.60;38.80;;;3.10;99.90;;;;;;5010792;28;20280;-78
2024/03/07 03:07:52;;;;;;;56.03;36.20;;;3.10;99.90;;;;;;5014893;28;20344;-78
2024/03/07 03:10:20;;;;;;;57.33;35.70;;;3.20;99.90;;;;;;5007197;28;20251;-78
2024/03/07 03:12:48;;;;;;;71.60;37.30;;;3.20;99.90;;;;;;5012298;28;20308;-78
2024/03/07 03:15:20;;;;;;;78.93;39.83;;;3.20;99.90;;;;;;5007004;28;20225;-77
2024/03/07 03:17:47;;;;;;;71.50;32.45;;;3.20;99.90;;;;;;5013991;28;20259;-78
2024/03/07 03:20:24;;;;;;;62.90;35.63;;;3.20;99.90;;;;;;5014170;28;20246;-78
2024/03/07 03:22:52;;;;;;;54.70;33.63;;;3.30;99.90;;;;;;5013167;28;20731;-78
2024/03/07 03:25:20;;;;;;;65.72;37.70;;;3.30;99.90;;;;;;5013347;28;20194;-77
2024/03/07 03:28:09;;;;;;;57.05;34.58;;;3.40;99.90;;;;;;5052267;23;20689;-78
2024/03/07 03:30:55;;;;;;;57.83;34.80;;;3.50;99.90;;;;;;5018055;28;20206;-78
2024/03/07 03:33:28;;;;;;;60.83;32.72;;;3.60;99.90;;;;;;5011918;28;20201;-78
2024/03/07 03:36:33;;;;;;;55.40;30.65;;;3.50;99.90;;;;;;5023551;28;20208;-78
2024/03/07 03:41:54;;;;;;;53.10;29.98;;;3.60;99.90;;;;;;5005216;28;20206;-77
2024/03/07 03:44:31;;;;;;;61.03;33.45;;;3.50;99.90;;;;;;5002535;28;20210;-77
2024/03/07 03:47:06;;;;;;;63.15;36.58;;;3.70;99.90;;;;;;4998999;28;20230;-77
2024/03/07 03:49:50;;;;;;;47.90;30.92;;;3.50;99.90;;;;;;5007507;28;20205;-77
2024/03/07 03:52:41;;;;;;;63.28;34.28;;;3.50;99.90;;;;;;5004960;28;20237;-77
2024/03/07 03:55:18;;;;;;;72.75;37.25;;;3.40;99.90;;;;;;4993851;28;20311;-78
2024/03/07 03:57:57;;;;;;;81.30;38.03;;;3.40;99.90;;;;;;5011304;28;20272;-77
2024/03/07 04:08:57;;;;;;;62.78;34.25;;;3.40;99.90;;;;;;5013666;28;20196;-76
2024/03/07 04:11:40;;;;;;;57.05;30.90;;;3.50;99.90;;;;;;5017310;28;20206;-75
2024/03/07 04:14:24;;;;;;;58.00;33.40;;;3.60;99.90;;;;;;5009681;28;20249;-77
2024/03/07 04:20:13;;;;;;;75.32;39.95;;;3.70;99.90;;;;;;5015798;28;20185;-77
2024/03/07 04:25:35;;;;;;;57.72;34.17;;;3.90;99.90;;;;;;5006539;28;20201;-76
2024/03/07 04:28:19;;;;;;;73.45;37.05;;;3.70;99.90;;;;;;5012007;28;20221;-77
2024/03/07 04:30:54;;;;;;;56.72;32.53;;;3.90;99.90;;;;;;5009625;28;20229;-77
2024/03/07 04:33:36;;;;;;;64.88;36.63;;;3.80;99.90;;;;;;5002502;28;20189;-77
2024/03/07 04:36:20;;;;;;;73.03;37.30;;;3.70;99.90;;;;;;4992795;28;20202;-77
2024/03/07 04:52:46;;;;;;;80.82;41.65;;;4.00;99.90;;;;;;5005919;28;20209;-79
2024/03/07 04:55:15;;;;;;;66.97;36.13;;;4.10;99.90;;;;;;5027424;28;20230;-77
2024/03/07 04:57:58;;;;;;;85.38;39.10;;;4.00;99.90;;;;;;4984899;28;20314;-78
2024/03/07 05:00:35;;;;;;;73.28;38.63;;;3.90;99.90;;;;;;4995776;28;20267;-77
2024/03/07 05:03:08;;;;;;;78.07;38.80;;;4.10;99.90;;;;;;4995773;28;20205;-77
2024/03/07 05:05:43;;;;;;;98.95;39.50;;;4.00;99.90;;;;;;4998004;28;20216;-77
2024/03/07 05:13:58;;;;;;;76.35;40.70;;;4.00;99.90;;;;;;4984364;28;20234;-78
2024/03/07 05:16:29;;;;;;;76.57;42.75;;;4.00;99.90;;;;;;4994546;28;20274;-77
2024/03/07 05:19:12;;;;;;;90.45;42.75;;;4.00;99.90;;;;;;4997646;28;20206;-77
2024/03/07 05:22:13;;;;;;;84.15;39.35;;;4.20;99.90;;;;;;5005838;28;20625;-77
2024/03/07 05:24:46;;;;;;;72.82;38.25;;;4.20;99.90;;;;;;4998038;28;20665;-77
2024/03/07 05:27:17;;;;;;;73.43;38.22;;;4.30;99.90;;;;;;4992403;28;20321;-77
2024/03/07 05:29:47;;;;;;;66.88;34.53;;;4.40;99.90;;;;;;4992017;28;20290;-78
2024/03/07 05:32:49;;;;;;;72.05;38.33;;;4.40;99.90;;;;;;5001707;28;20284;-79
2024/03/07 05:35:26;;;;;;;77.97;36.70;;;4.50;99.90;;;;;;4993378;28;20316;-76
2024/03/07 05:38:09;;;;;;;64.43;38.30;;;4.60;99.90;;;;;;5001101;28;20225;-77
2024/03/07 05:40:44;;;;;;;72.80;38.47;;;4.70;99.90;;;;;;4991720;28;20213;-77
2024/03/07 05:43:29;;;;;;;79.63;36.55;;;4.70;99.90;;;;;;4993218;28;20220;-77
2024/03/07 05:46:35;;;;;;;76.03;38.67;;;4.90;99.90;;;;;;4990762;28;20197;-79
2024/03/07 05:49:17;;;;;;;73.45;38.50;;;4.80;99.90;;;;;;4997241;28;20567;-76
2024/03/07 05:55:40;;;;;;;80.05;39.78;;;5.10;99.90;;;;;;4993147;28;20258;-77
2024/03/07 05:58:52;;;;;;;77.68;40.38;;;5.10;99.90;;;;;;4989055;28;20222;-78
2024/03/07 06:01:34;;;;;;;65.65;37.70;;;5.20;99.90;;;;;;4988474;28;20199;-76
2024/03/07 06:04:10;;;;;;;66.45;38.20;;;5.20;99.90;;;;;;5003201;28;20276;-76
2024/03/07 06:16:37;;;;;;;62.13;37.35;;;5.50;99.90;;;;;;5000324;28;20225;-78
2024/03/07 06:29:16;;;;;;;56.70;33.80;;;5.50;99.90;;;;;;4964456;28;20273;-77
2024/03/07 06:35:19;;;;;;;51.88;32.20;;;5.80;99.90;;;;;;4987128;28;20301;-78
2024/03/07 06:45:16;;;;;;;58.35;29.52;;;6.00;99.90;;;;;;4986224;28;20206;-77
2024/03/07 06:48:19;;;;;;;50.60;27.73;;;6.10;99.90;;;;;;4993273;28;20237;-78
2024/03/07 06:54:15;;;;;;;44.78;27.33;;;6.10;99.90;;;;;;4998140;28;20197;-79
2024/03/07 07:00:23;;;;;;;49.88;25.50;;;6.30;99.90;;;;;;4989658;28;20245;-78
2024/03/07 07:09:53;;;;;;;43.30;26.48;;;6.10;99.90;;;;;;5065365;27;20580;-74
2024/03/07 07:12:20;;;;;;;47.40;26.30;;;6.30;99.90;;;;;;5048653;28;20200;-75
2024/03/07 07:14:47;;;;;;;49.60;27.05;;;6.30;99.90;;;;;;5048604;28;20240;-75
2024/03/07 07:17:14;;;;;;;52.83;31.83;;;6.30;99.90;;;;;;5047758;28;20212;-75
2024/03/07 07:19:42;;;;;;;49.53;27.38;;;6.30;99.90;;;;;;5051539;28;20655;-74
2024/03/07 07:22:10;;;;;;;47.10;29.70;;;6.40;99.90;;;;;;5046875;28;20250;-74
2024/03/07 07:24:39;;;;;;;41.03;28.27;;;6.30;99.90;;;;;;5044479;28;20235;-73
2024/03/07 07:27:08;;;;;;;45.88;28.27;;;6.30;99.90;;;;;;5045976;28;20196;-73
2024/03/07 07:29:36;;;;;;;46.83;28.23;;;6.30;99.90;;;;;;5050130;28;20227;-75
2024/03/07 07:32:03;;;;;;;51.08;27.52;;;6.30;99.90;;;;;;5051459;28;20204;-73
2024/03/07 07:34:31;;;;;;;42.35;26.90;;;6.40;99.90;;;;;;5045021;28;20745;-76
2024/03/07 07:37:04;;;;;;;45.50;27.20;;;6.50;99.90;;;;;;5047024;28;20671;-73
2024/03/07 07:39:31;;;;;;;49.47;30.65;;;6.60;99.90;;;;;;5050356;28;20250;-76
2024/03/07 07:41:58;;;;;;;47.53;28.65;;;6.80;99.90;;;;;;5049754;28;20619;-74
2024/03/07 07:44:33;;;;;;;43.75;29.08;;;6.80;99.90;;;;;;5050033;28;20593;-75
2024/03/07 07:47:01;;;;;;;54.15;29.67;;;6.90;99.90;;;;;;5048571;28;20200;-76
2024/03/07 07:49:28;;;;;;;43.33;26.80;;;6.90;99.90;;;;;;5041066;28;20667;-76
2024/03/07 07:51:55;;;;;;;49.63;28.00;;;6.90;99.90;;;;;;5049386;28;20265;-75
2024/03/07 07:54:23;;;;;;;48.38;28.38;;;6.90;99.90;;;;;;5045173;28;20221;-74
2024/03/07 07:56:51;;;;;;;41.13;28.40;;;7.00;99.90;;;;;;5045249;28;20227;-74
2024/03/07 07:59:18;;;;;;;49.05;29.20;;;7.10;99.90;;;;;;5047891;28;20866;-74
2024/03/07 08:01:46;;;;;;;42.10;26.25;;;7.20;99.90;;;;;;5048286;28;20819;-75
2024/03/07 08:04:13;;;;;;;47.85;29.02;;;7.40;99.90;;;;;;5049128;28;20224;-75
2024/03/07 08:06:40;;;;;;;40.15;26.50;;;7.50;99.90;;;;;;5048440;28;20306;-74
2024/03/07 08:09:10;;;;;;;48.30;27.90;;;7.60;99.90;;;;;;5048300;28;20228;-75
2024/03/07 08:11:38;;;;;;;38.70;24.85;;;7.70;99.90;;;;;;5048178;28;20196;-75
2024/03/07 08:14:06;;;;;;;40.95;24.25;;;7.70;99.90;;;;;;5032068;28;20260;-74
2024/03/07 08:16:33;;;;;;;33.38;22.42;;;7.80;99.90;;;;;;5048861;28;20291;-75
2024/03/07 08:19:03;;;;;;;37.88;24.88;;;7.80;99.90;;;;;;5041461;28;20205;-73
2024/03/07 08:21:32;;;;;;;32.15;20.52;;;8.00;99.90;;;;;;5032160;28;20212;-75
2024/03/07 08:23:59;;;;;;;41.45;24.40;;;8.10;99.90;;;;;;5021555;28;20708;-76
2024/03/07 08:26:26;;;;;;;38.45;20.60;;;8.20;99.90;;;;;;5032592;28;20204;-76
2024/03/07 08:28:53;;;;;;;31.00;19.08;;;8.50;99.90;;;;;;5031997;28;20236;-72
2024/03/07 08:31:20;;;;;;;31.63;18.67;;;8.80;99.90;;;;;;5027053;28;20255;-74
2024/03/07 08:33:47;;;;;;;24.33;18.15;;;9.50;99.90;;;;;;5032238;28;20236;-73
2024/03/07 08:36:16;;;;;;;28.98;18.50;;;10.50;99.90;;;;;;5027984;28;20205;-76
2024/03/07 08:38:46;;;;;;;30.60;20.17;;;11.20;99.90;;;;;;5039627;28;20209;-76
2024/03/07 08:41:13;;;;;;;30.90;18.92;;;11.50;99.90;;;;;;5033147;28;20597;-74
2024/03/07 08:43:41;;;;;;;24.90;16.73;;;11.90;99.90;;;;;;5035471;28;20271;-74
2024/03/07 08:46:08;;;;;;;23.00;15.18;;;12.70;99.90;;;;;;5020505;28;20206;-75
2024/03/07 08:48:35;;;;;;;24.70;15.95;;;13.40;99.90;;;;;;5024486;28;20723;-74
2024/03/07 08:51:02;;;;;;;24.00;17.07;;;14.30;99.90;;;;;;5033401;28;20201;-74
2024/03/07 08:53:30;;;;;;;28.43;19.03;;;14.90;98.50;;;;;;5028358;28;20460;-73
2024/03/07 08:56:01;;;;;;;28.35;19.58;;;14.70;97.60;;;;;;5033006;28;20444;-74
2024/03/07 08:58:28;;;;;;;21.63;15.98;;;14.50;97.70;;;;;;5032582;28;20203;-74
2024/03/07 09:00:55;;;;;;;30.33;20.38;;;14.10;97.40;;;;;;5032211;28;20641;-72
2024/03/07 09:03:23;;;;;;;32.22;20.05;;;13.40;97.90;;;;;;5027125;28;20630;-73
2024/03/07 09:05:52;;;;;;;25.67;17.27;;;12.70;99.40;;;;;;5026814;28;20215;-75
2024/03/07 09:08:18;;;;;;;28.08;17.27;;;12.40;99.90;;;;;;5030478;28;20240;-73
2024/03/07 09:10:47;;;;;;;32.40;17.42;;;12.30;99.90;;;;;;5032898;28;20308;-74
2024/03/07 09:13:14;;;;;;;33.10;18.40;;;11.70;99.90;;;;;;5028965;28;20607;-74
2024/03/07 09:15:41;;;;;;;27.73;18.27;;;11.50;99.90;;;;;;5027005;28;20549;-73
2024/03/07 09:18:08;;;;;;;28.92;16.10;;;11.40;99.90;;;;;;5031334;28;20208;-75
2024/03/07 09:20:36;;;;;;;27.00;19.90;;;11.30;99.90;;;;;;5025850;28;20205;-75
2024/03/07 09:23:03;;;;;;;31.77;18.73;;;11.10;99.90;;;;;;5022884;28;20244;-74
2024/03/07 09:25:32;;;;;;;31.00;19.38;;;10.80;99.90;;;;;;5033383;28;20255;-74
2024/03/07 09:30:30;;;;;;;32.80;17.30;;;10.50;99.90;;;;;;5022336;28;20283;-74
2024/03/07 09:32:57;;;;;;;24.75;16.75;;;10.30;99.90;;;;;;5021537;28;20231;-74
2024/03/07 09:35:24;;;;;;;26.65;16.40;;;9.80;99.90;;;;;;5039825;28;20197;-75
2024/03/07 09:37:51;;;;;;;31.70;18.40;;;9.60;99.90;;;;;;5037357;28;20283;-75
2024/03/07 09:40:18;;;;;;;31.88;17.70;;;9.40;99.90;;;;;;5041120;28;20213;-75
2024/03/07 09:42:47;;;;;;;30.00;18.67;;;9.20;99.90;;;;;;5035490;28;20258;-74
2024/03/07 09:45:17;;;;;;;27.00;16.65;;;8.80;99.90;;;;;;5037911;28;20232;-75
2024/03/07 09:47:48;;;;;;;28.38;19.00;;;8.50;99.90;;;;;;5039066;28;20263;-72
2024/03/07 09:50:18;;;;;;;29.05;18.30;;;8.30;99.90;;;;;;5036251;28;20683;-73
2024/03/07 09:52:49;;;;;;;30.50;18.77;;;8.10;99.90;;;;;;5039052;28;20300;-73
2024/03/07 09:55:17;;;;;;;31.50;18.45;;;8.00;99.90;;;;;;5035549;28;20231;-75
2024/03/07 09:57:45;;;;;;;30.02;18.77;;;8.00;99.90;;;;;;5043867;28;20243;-75
2024/03/07 10:00:22;;;;;;;29.33;19.83;;;7.90;99.90;;;;;;5036435;28;20646;-74
2024/03/07 10:02:54;;;;;;;29.15;18.73;;;7.80;99.90;;;;;;5042322;28;20328;-74
2024/03/07 10:05:23;;;;;;;30.00;18.30;;;7.90;99.90;;;;;;5033868;28;20291;-73
2024/03/07 10:07:51;;;;;;;31.27;19.63;;;7.90;99.90;;;;;;5035397;28;20212;-73
2024/03/07 10:10:19;;;;;;;29.88;19.77;;;7.80;99.90;;;;;;5032894;28;20213;-74
2024/03/07 10:12:46;;;;;;;38.03;19.30;;;7.90;99.90;;;;;;5032018;28;20204;-74
2024/03/07 10:15:13;;;;;;;30.20;20.73;;;7.90;99.90;;;;;;5032295;28;20223;-73
2024/03/07 10:17:41;;;;;;;32.20;19.92;;;8.00;99.90;;;;;;5034036;28;20632;-74
2024/03/07 10:20:13;;;;;;;31.10;19.60;;;8.10;99.90;;;;;;5033710;28;20204;-75
2024/03/07 10:22:41;;;;;;;29.83;18.85;;;8.00;99.90;;;;;;5032333;28;20646;-74
2024/03/07 10:25:08;;;;;;;30.90;17.45;;;8.00;99.90;;;;;;5031691;28;20287;-75
2024/03/07 10:27:38;;;;;;;29.00;18.58;;;8.00;99.90;;;;;;5033011;28;20616;-75
2024/03/07 10:30:07;;;;;;;33.17;20.67;;;8.00;99.90;;;;;;5032073;28;20224;-74
2024/03/07 10:32:35;;;;;;;29.98;18.45;;;8.00;99.90;;;;;;5032662;28;20205;-76
2024/03/07 10:35:06;;;;;;;35.17;20.17;;;7.80;99.90;;;;;;5031318;28;20231;-73
2024/03/07 10:37:35;;;;;;;34.17;19.13;;;7.70;99.90;;;;;;5032734;28;20207;-74
2024/03/07 10:40:15;;;;;;;29.08;16.05;;;7.80;99.90;;;;;;5032833;28;20278;-75
2024/03/07 10:42:46;;;;;;;23.23;16.58;;;7.70;99.90;;;;;;5033423;28;20541;-74
2024/03/07 10:45:18;;;;;;;26.98;17.95;;;7.70;99.90;;;;;;5032043;28;20597;-75
2024/03/07 10:47:49;;;;;;;28.35;17.30;;;7.50;99.90;;;;;;5032040;28;20266;-75
2024/03/07 10:50:21;;;;;;;23.33;15.52;;;7.50;99.90;;;;;;5032078;28;20712;-75
2024/03/07 10:53:00;;;;;;;24.30;13.05;;;7.70;99.90;;;;;;5032530;28;20298;-76
2024/03/07 10:55:38;;;;;;;19.50;14.20;;;7.60;99.90;;;;;;5031688;28;20235;-74
2024/03/07 10:58:15;;;;;;;21.23;13.95;;;7.50;99.90;;;;;;5032594;28;20213;-75
2024/03/07 11:00:45;;;;;;;16.67;11.98;;;7.50;99.90;;;;;;5033162;28;20553;-74
2024/03/07 11:03:13;;;;;;;22.48;13.35;;;7.40;99.90;;;;;;5033771;28;20237;-75
2024/03/07 11:05:43;;;;;;;20.92;13.57;;;7.40;99.90;;;;;;5031470;28;20263;-74
2024/03/07 11:08:12;;;;;;;20.60;12.00;;;7.40;99.90;;;;;;5032771;28;20247;-75
2024/03/07 11:10:39;;;;;;;18.80;12.82;;;7.40;99.90;;;;;;5031956;28;20220;-74
2024/03/07 11:13:10;;;;;;;16.33;12.25;;;7.40;99.90;;;;;;5031815;28;20248;-73
2024/03/07 11:15:38;;;;;;;16.98;11.48;;;7.30;99.90;;;;;;5031392;28;20209;-74
2024/03/07 11:18:08;;;;;;;18.48;14.48;;;7.30;99.90;;;;;;5031911;28;20208;-74
2024/03/07 11:20:38;;;;;;;15.48;12.70;;;7.20;99.90;;;;;;5032287;28;20202;-75
2024/03/07 11:23:30;;;;;;;16.02;13.10;;;7.20;99.90;;;;;;5031293;28;20228;-74
2024/03/07 11:26:04;;;;;;;17.50;11.38;;;7.20;99.90;;;;;;5031269;28;20205;-74
2024/03/07 11:28:32;;;;;;;15.45;12.10;;;7.10;99.90;;;;;;5030068;28;20257;-74
2024/03/07 11:31:14;;;;;;;15.52;11.20;;;7.10;99.90;;;;;;5031898;28;20282;-74
2024/03/07 11:33:43;;;;;;;17.67;13.05;;;7.30;99.90;;;;;;5031318;28;20569;-75
2024/03/07 11:36:11;;;;;;;22.67;14.38;;;7.40;99.90;;;;;;5031077;28;20208;-75
2024/03/07 11:38:45;;;;;;;22.50;14.98;;;7.30;99.90;;;;;;5032381;28;20866;-73
2024/03/07 11:41:13;;;;;;;20.90;12.23;;;7.20;99.90;;;;;;5032780;28;20541;-75
2024/03/07 11:43:42;;;;;;;17.00;12.57;;;7.20;99.90;;;;;;5032883;28;20286;-74
2024/03/07 11:46:11;;;;;;;19.27;12.40;;;7.20;99.90;;;;;;5031199;28;20215;-74
2024/03/07 11:48:42;;;;;;;18.10;13.88;;;7.00;99.90;;;;;;5032041;28;20201;-74
2024/03/07 11:51:13;;;;;;;18.90;13.20;;;6.90;99.90;;;;;;5031687;28;20228;-75
2024/03/07 11:53:41;;;;;;;19.75;12.80;;;6.90;99.90;;;;;;5031492;28;20256;-74
2024/03/07 11:56:16;;;;;;;23.52;12.95;;;6.80;99.90;;;;;;5033968;28;20204;-75
2024/03/07 11:58:44;;;;;;;15.57;10.70;;;6.90;99.90;;;;;;5035740;28;20262;-74
2024/03/07 12:01:13;;;;;;;17.50;12.60;;;7.10;99.90;;;;;;5033263;28;20197;-75
2024/03/07 12:03:40;;;;;;;17.10;11.95;;;7.10;99.90;;;;;;5035188;28;20227;-74
2024/03/07 12:06:12;;;;;;;19.95;13.07;;;7.10;99.90;;;;;;5033042;28;20205;-75
2024/03/07 12:08:43;;;;;;;16.05;11.07;;;7.10;99.90;;;;;;5031115;28;20205;-74
2024/03/07 12:11:15;;;;;;;20.45;13.13;;;7.10;99.90;;;;;;5034262;28;20303;-73
2024/03/07 12:13:42;;;;;;;17.10;11.15;;;7.40;99.90;;;;;;5035339;28;20220;-74
2024/03/07 12:16:09;;;;;;;17.38;11.32;;;7.50;99.90;;;;;;5034593;28;20655;-75
2024/03/07 12:18:37;;;;;;;14.00;9.88;;;7.70;99.90;;;;;;5028044;28;20622;-75
2024/03/07 12:21:08;;;;;;;15.88;11.93;;;7.80;99.90;;;;;;5035957;28;20255;-74
2024/03/07 12:23:35;;;;;;;16.52;12.63;;;7.90;99.90;;;;;;5036343;28;20226;-74
2024/03/07 12:26:05;;;;;;;16.20;11.90;;;8.10;99.90;;;;;;5034549;28;20208;-74
2024/03/07 12:28:33;;;;;;;19.52;12.80;;;8.20;99.90;;;;;;5032919;28;20246;-74
2024/03/07 12:31:02;;;;;;;14.38;12.02;;;8.20;99.90;;;;;;5034711;28;20320;-74
2024/03/07 12:33:32;;;;;;;22.73;13.15;;;8.20;99.90;;;;;;5033333;28;20691;-74
2024/03/07 12:36:05;;;;;;;18.92;12.32;;;8.20;99.90;;;;;;5034403;28;20271;-74
2024/03/07 12:38:35;;;;;;;15.73;12.07;;;8.20;99.90;;;;;;5033665;28;20292;-74
2024/03/07 12:41:13;;;;;;;22.23;12.18;;;8.10;99.90;;;;;;5034697;28;20205;-74
2024/03/07 12:43:42;;;;;;;22.30;11.10;;;8.00;99.90;;;;;;5038732;28;20228;-75
2024/03/07 12:46:15;;;;;;;17.10;12.68;;;7.90;99.90;;;;;;5036212;28;20679;-75
2024/03/07 12:48:44;;;;;;;17.58;11.88;;;7.80;99.90;;;;;;5033153;28;20204;-74
2024/03/07 12:51:16;;;;;;;16.48;12.63;;;7.90;99.90;;;;;;5033892;28;20224;-76
2024/03/07 12:53:43;;;;;;;16.90;11.65;;;7.80;99.90;;;;;;5034185;28;20588;-74
2024/03/07 12:56:16;;;;;;;15.68;11.90;;;7.70;99.90;;;;;;5039629;28;20204;-75
2024/03/07 12:58:44;;;;;;;18.80;12.90;;;7.60;99.90;;;;;;5034853;28;20209;-75
2024/03/07 13:01:13;;;;;;;19.35;13.07;;;7.60;99.90;;;;;;5042431;28;20235;-74
2024/03/07 13:03:41;;;;;;;21.42;14.15;;;7.70;99.90;;;;;;5044188;28;20236;-74
2024/03/07 13:06:10;;;;;;;23.08;12.85;;;7.70;99.90;;;;;;5031743;28;20212;-74
2024/03/07 13:08:38;;;;;;;17.35;13.88;;;7.80;99.90;;;;;;5034334;28;20196;-74
2024/03/07 13:11:05;;;;;;;24.77;14.50;;;7.80;99.90;;;;;;5033116;28;20642;-73
2024/03/07 13:13:34;;;;;;;18.45;13.43;;;7.80;99.90;;;;;;5030894;28;20228;-74
2024/03/07 13:16:01;;;;;;;16.90;11.77;;;7.70;99.90;;;;;;5032817;28;20205;-74
2024/03/07 13:18:27;;;;;;;20.15;13.98;;;7.60;99.90;;;;;;5033710;28;20501;-74
2024/03/07 13:20:54;;;;;;;24.92;15.98;;;7.70;99.90;;;;;;5033980;28;20267;-74
2024/03/07 13:23:26;;;;;;;19.83;13.23;;;7.70;99.90;;;;;;5033383;28;20256;-75
2024/03/07 13:25:53;;;;;;;23.95;15.15;;;7.60;99.90;;;;;;5033325;28;20241;-74
2024/03/07 13:28:24;;;;;;;28.83;14.07;;;7.60;99.90;;;;;;5033362;28;20267;-75
2024/03/07 13:30:54;;;;;;;20.98;15.18;;;7.60;99.90;;;;;;5015785;28;20228;-75
2024/03/07 13:33:24;;;;;;;20.55;14.32;;;7.60;99.90;;;;;;5033808;28;20228;-75
2024/03/07 13:35:51;;;;;;;20.95;13.38;;;7.70;99.90;;;;;;5033200;28;20300;-75
2024/03/07 13:38:18;;;;;;;17.85;12.32;;;7.50;99.90;;;;;;5032838;28;20570;-73
2024/03/07 13:40:45;;;;;;;25.73;13.60;;;7.50;99.90;;;;;;5033763;28;20622;-75
2024/03/07 13:43:14;;;;;;;21.38;13.90;;;7.60;99.90;;;;;;5035253;28;20686;-76
2024/03/07 13:45:43;;;;;;;25.30;15.30;;;7.60;99.90;;;;;;5033542;28;20197;-75
2024/03/07 13:48:13;;;;;;;18.45;14.68;;;7.50;99.90;;;;;;5033510;28;20200;-74
2024/03/07 13:50:41;;;;;;;24.60;16.13;;;7.40;99.90;;;;;;5028645;28;20311;-75
2024/03/07 13:53:12;;;;;;;21.90;14.68;;;7.30;99.90;;;;;;5032871;28;20236;-73
2024/03/07 13:55:54;;;;;;;22.63;15.95;;;7.40;99.90;;;;;;5032763;28;20201;-74
2024/03/07 13:58:35;;;;;;;22.77;14.98;;;7.20;99.90;;;;;;5032671;28;20286;-74
2024/03/07 14:01:21;;;;;;;22.52;16.38;;;7.10;99.90;;;;;;5033116;28;20197;-74
2024/03/07 14:04:32;;;;;;;24.15;15.48;;;7.00;99.90;;;;;;5030757;28;20224;-75
2024/03/07 14:07:19;;;;;;;25.25;15.88;;;6.80;99.90;;;;;;5015860;28;20209;-75
2024/03/07 14:10:21;;;;;;;35.33;18.05;;;6.70;99.90;;;;;;5031315;28;20205;-75
2024/03/07 14:13:18;;;;;;;24.58;16.50;;;6.60;99.90;;;;;;5032561;28;20223;-75
2024/03/07 14:16:20;;;;;;;26.33;14.95;;;6.60;99.90;;;;;;5033747;28;20288;-75
2024/03/07 14:19:24;;;;;;;25.77;15.63;;;6.50;99.90;;;;;;5027229;28;20204;-75
2024/03/07 14:22:21;;;;;;;26.30;15.23;;;6.60;99.90;;;;;;5033589;28;20239;-75
2024/03/07 14:25:30;;;;;;;23.23;14.38;;;6.70;99.90;;;;;;5030365;28;20228;-75